Time;durP1;ratioP1;P1;durP2;ratioP2;P2;SDS_P1;SDS_P2;PMS_P1;PMS_P2;Temp;Humidity;BMP_temperature;BMP_pressure;BME280_temperature;BME280_humidity;BME280_pressure;Samples;Min_cycle;Max_cycle;Signal;HPM_P1;HPM_P2
2022/01/20 00:00:33;;;;;;;23.42;13.05;;;0.30;99.90;;;;;;5056348;28;20037;-80
2022/01/20 00:03:02;;;;;;;23.50;12.45;;;0.30;99.90;;;;;;5070151;28;20079;-81
2022/01/20 00:05:59;;;;;;;28.17;13.98;;;0.30;99.90;;;;;;5075147;28;20032;-80
2022/01/20 00:08:30;;;;;;;26.73;13.25;;;0.30;99.90;;;;;;5071808;28;20032;-80
2022/01/20 00:27:22;;;;;;;22.75;12.57;;;0.20;99.90;;;;;;5074923;28;20040;-80
2022/01/20 00:35:29;;;;;;;42.70;18.42;;;0.20;99.90;;;;;;5068517;28;20042;-81
2022/01/20 00:37:54;;;;;;;28.48;14.32;;;0.20;99.90;;;;;;5074542;28;20029;-81
2022/01/20 00:40:20;;;;;;;35.13;15.25;;;0.20;99.90;;;;;;5074214;28;20511;-81
2022/01/20 00:42:46;;;;;;;32.10;15.18;;;0.20;99.90;;;;;;5056352;28;20048;-81
2022/01/20 00:45:11;;;;;;;31.30;15.68;;;0.10;99.90;;;;;;5056134;28;20039;-81
2022/01/20 00:47:38;;;;;;;27.00;14.50;;;0.10;99.90;;;;;;5056272;28;20040;-81
2022/01/20 00:50:06;;;;;;;27.60;14.57;;;0.10;99.90;;;;;;5056114;28;20020;-81
2022/01/20 00:52:32;;;;;;;24.23;12.85;;;0.10;99.90;;;;;;5056123;28;20508;-81
2022/01/20 00:54:57;;;;;;;27.67;15.85;;;0.10;99.90;;;;;;5055979;28;20037;-81
2022/01/20 00:57:23;;;;;;;30.55;14.55;;;0.10;99.90;;;;;;5074011;28;20037;-81
2022/01/20 00:59:48;;;;;;;28.63;15.32;;;0.10;99.90;;;;;;5073888;28;20032;-82
2022/01/20 01:02:14;;;;;;;30.27;15.88;;;0.10;99.90;;;;;;5073902;28;20401;-81
2022/01/20 01:04:41;;;;;;;27.23;15.07;;;0.10;99.90;;;;;;5056153;28;20047;-81
2022/01/20 01:09:50;;;;;;;26.75;14.43;;;0.10;99.90;;;;;;5073989;28;20132;-80
2022/01/20 01:12:26;;;;;;;31.08;14.55;;;0.10;99.90;;;;;;5055862;28;20115;-81
2022/01/20 01:14:53;;;;;;;29.30;15.98;;;0.10;99.90;;;;;;5073797;28;20032;-81
2022/01/20 01:22:30;;;;;;;32.13;14.15;;;0.20;99.90;;;;;;5073372;28;20063;-82
2022/01/20 01:24:57;;;;;;;28.35;14.88;;;0.10;99.90;;;;;;5054746;28;20102;-82
2022/01/20 01:27:25;;;;;;;23.05;13.52;;;0.10;99.90;;;;;;5055408;28;20041;-81
2022/01/20 01:32:25;;;;;;;21.60;13.63;;;0.10;99.90;;;;;;5073395;28;20108;-81
2022/01/20 01:34:52;;;;;;;29.70;16.20;;;0.10;99.90;;;;;;5055830;28;20161;-81
2022/01/20 01:39:50;;;;;;;21.08;12.90;;;0.10;99.90;;;;;;5073452;28;20098;-81
2022/01/20 01:42:23;;;;;;;27.92;14.20;;;0.20;99.90;;;;;;5055194;28;20044;-81
2022/01/20 01:44:49;;;;;;;26.63;13.40;;;0.20;99.90;;;;;;5073211;28;20032;-81
2022/01/20 01:47:14;;;;;;;26.15;13.68;;;0.10;99.90;;;;;;5073062;28;20466;-80
2022/01/20 01:49:40;;;;;;;24.48;13.80;;;0.10;99.90;;;;;;5055087;28;20028;-81
2022/01/20 01:52:05;;;;;;;26.17;14.52;;;0.20;99.90;;;;;;5073028;28;20036;-81
2022/01/20 01:54:32;;;;;;;33.35;15.60;;;0.20;99.90;;;;;;5068025;28;20098;-80
2022/01/20 01:57:01;;;;;;;23.58;13.50;;;0.20;99.90;;;;;;5035019;28;20124;-80
2022/01/20 01:59:26;;;;;;;21.38;13.02;;;0.20;99.90;;;;;;5035023;28;20033;-80
2022/01/20 02:01:52;;;;;;;22.55;13.10;;;0.20;99.90;;;;;;5034744;28;20570;-80
2022/01/20 02:04:20;;;;;;;20.48;11.63;;;0.20;99.90;;;;;;5052965;28;20211;-81
2022/01/20 02:20:05;;;;;;;21.10;12.80;;;0.20;99.90;;;;;;5032668;28;20043;-81
2022/01/20 02:22:30;;;;;;;25.98;14.70;;;0.20;99.90;;;;;;5032664;28;20045;-81
2022/01/20 02:24:56;;;;;;;23.33;14.30;;;0.20;99.90;;;;;;5032732;28;20454;-81
2022/01/20 02:27:21;;;;;;;23.13;11.75;;;0.20;99.90;;;;;;5023093;28;20116;-81
2022/01/20 02:29:47;;;;;;;21.30;12.23;;;0.20;99.90;;;;;;5033830;28;20021;-81
2022/01/20 02:32:13;;;;;;;21.02;12.00;;;0.20;99.90;;;;;;5052574;28;20531;-82
2022/01/20 02:34:38;;;;;;;26.13;12.60;;;0.20;99.90;;;;;;5033276;28;20056;-81
2022/01/20 02:37:09;;;;;;;26.50;12.73;;;0.30;99.90;;;;;;5054767;28;20074;-81
2022/01/20 02:44:54;;;;;;;19.80;10.95;;;0.40;99.90;;;;;;5056388;28;20040;-81
2022/01/20 02:47:24;;;;;;;25.23;12.70;;;0.30;99.90;;;;;;5037903;28;20039;-81
2022/01/20 02:49:50;;;;;;;19.88;12.45;;;0.30;99.90;;;;;;5055955;28;20029;-81
2022/01/20 02:52:17;;;;;;;27.48;12.60;;;0.30;99.90;;;;;;5037834;28;20067;-81
2022/01/20 02:54:43;;;;;;;20.33;11.73;;;0.30;99.90;;;;;;5055928;28;20482;-81
2022/01/20 02:57:09;;;;;;;24.17;11.38;;;0.30;99.90;;;;;;5037735;28;20044;-81
2022/01/20 02:59:35;;;;;;;22.58;13.82;;;0.30;99.90;;;;;;5056350;28;20433;-81
2022/01/20 03:02:02;;;;;;;21.25;10.68;;;0.30;99.90;;;;;;5056014;28;20048;-81
2022/01/20 03:04:29;;;;;;;20.05;11.80;;;0.30;99.90;;;;;;5037392;28;20029;-82
2022/01/20 03:06:55;;;;;;;25.92;12.75;;;0.30;99.90;;;;;;5056197;28;20103;-81
2022/01/20 03:09:21;;;;;;;17.40;11.05;;;0.20;99.90;;;;;;5037314;28;20123;-82
2022/01/20 03:11:48;;;;;;;22.08;13.18;;;0.20;99.90;;;;;;5037051;28;20021;-80
2022/01/20 03:14:14;;;;;;;23.80;14.43;;;0.20;99.90;;;;;;5037232;28;20057;-81
2022/01/20 03:16:40;;;;;;;22.15;13.38;;;0.20;99.90;;;;;;5055911;28;20025;-81
2022/01/20 03:19:06;;;;;;;19.98;11.10;;;0.10;99.90;;;;;;5055152;28;20033;-81
2022/01/20 03:21:32;;;;;;;29.42;13.73;;;0.10;99.90;;;;;;5055262;28;20120;-81
2022/01/20 03:23:57;;;;;;;26.35;13.98;;;0.10;99.90;;;;;;5038043;28;20098;-81
2022/01/20 03:26:23;;;;;;;27.80;13.93;;;0.10;99.90;;;;;;5055022;28;20032;-80
2022/01/20 03:28:50;;;;;;;25.55;13.38;;;0.10;99.90;;;;;;5038013;28;20029;-81
2022/01/20 03:31:16;;;;;;;27.38;12.88;;;0.10;99.90;;;;;;5054816;28;20486;-81
2022/01/20 03:33:42;;;;;;;28.00;14.48;;;0.10;99.90;;;;;;5053959;28;20032;-81
2022/01/20 03:36:08;;;;;;;24.30;11.77;;;0.00;99.90;;;;;;5055426;28;20115;-81
2022/01/20 03:38:33;;;;;;;25.75;12.63;;;0.00;99.90;;;;;;5037677;28;20029;-81
2022/01/20 03:40:59;;;;;;;25.70;12.18;;;0.00;99.90;;;;;;5037286;28;20029;-81
2022/01/20 03:43:25;;;;;;;25.17;12.82;;;0.00;99.90;;;;;;5037566;28;20029;-81
2022/01/20 03:45:55;;;;;;;23.50;13.75;;;0.00;99.90;;;;;;5055263;28;20033;-81
2022/01/20 03:48:23;;;;;;;23.55;13.82;;;0.00;99.90;;;;;;5036726;28;20025;-81
2022/01/20 03:51:02;;;;;;;29.38;12.68;;;0.00;99.90;;;;;;5037233;28;20043;-81
2022/01/20 03:53:30;;;;;;;24.35;13.30;;;0.00;99.90;;;;;;5054266;28;20498;-81
2022/01/20 03:55:57;;;;;;;23.38;12.65;;;0.00;99.90;;;;;;5054208;28;20025;-82
2022/01/20 03:58:23;;;;;;;23.58;11.65;;;0.00;99.90;;;;;;5054741;28;20029;-81
2022/01/20 04:00:49;;;;;;;24.20;12.73;;;0.00;99.90;;;;;;5037048;28;20037;-81
2022/01/20 04:03:16;;;;;;;25.75;14.93;;;0.00;99.90;;;;;;5054916;28;20053;-81
2022/01/20 04:05:56;;;;;;;59.58;31.15;;;0.10;99.90;;;;;;5055979;28;20036;-81
2022/01/20 04:08:23;;;;;;;47.30;18.98;;;0.10;99.90;;;;;;5039584;28;20481;-81
2022/01/20 04:10:49;;;;;;;35.15;15.80;;;0.00;99.90;;;;;;5056866;28;20055;-81
2022/01/20 04:13:16;;;;;;;33.17;15.60;;;0.10;99.90;;;;;;5059321;28;20447;-80
2022/01/20 04:15:42;;;;;;;25.92;14.15;;;0.00;99.90;;;;;;5043499;28;20028;-81
2022/01/20 04:18:11;;;;;;;25.67;12.93;;;0.00;99.90;;;;;;5040362;28;20524;-81
2022/01/20 04:20:37;;;;;;;21.35;12.93;;;0.00;99.90;;;;;;5038050;28;20065;-81
2022/01/20 04:23:02;;;;;;;21.55;13.02;;;0.00;99.90;;;;;;5054261;28;20099;-81
2022/01/20 04:25:28;;;;;;;28.52;15.55;;;0.00;99.90;;;;;;5054752;28;20032;-81
2022/01/20 04:27:54;;;;;;;28.38;15.20;;;0.00;99.90;;;;;;5036839;28;20033;-81
2022/01/20 04:30:20;;;;;;;29.13;14.38;;;-0.10;99.90;;;;;;5054425;28;20025;-81
2022/01/20 04:32:45;;;;;;;22.38;13.40;;;-0.10;99.90;;;;;;5054714;28;20029;-81
2022/01/20 04:35:11;;;;;;;25.50;14.05;;;-0.10;99.90;;;;;;5053230;28;20055;-81
2022/01/20 04:37:37;;;;;;;23.45;14.07;;;-0.10;99.90;;;;;;5054476;28;20368;-82
2022/01/20 04:40:04;;;;;;;25.35;14.80;;;-0.10;99.90;;;;;;5054290;28;20025;-81
2022/01/20 04:42:33;;;;;;;28.08;13.65;;;-0.10;99.90;;;;;;5054392;28;20500;-81
2022/01/20 04:45:04;;;;;;;27.70;16.30;;;-0.20;99.90;;;;;;5053288;28;20044;-81
2022/01/20 04:58:07;;;;;;;34.33;18.15;;;-0.20;99.90;;;;;;5054119;28;20036;-81
2022/01/20 05:00:34;;;;;;;32.25;17.25;;;-0.20;99.90;;;;;;5052575;28;20029;-81
2022/01/20 05:03:01;;;;;;;31.08;15.98;;;-0.20;99.90;;;;;;5052583;28;20122;-81
2022/01/20 05:05:27;;;;;;;31.75;16.52;;;-0.30;99.90;;;;;;5054071;28;20108;-81
2022/01/20 05:07:53;;;;;;;31.95;18.17;;;-0.30;99.90;;;;;;5055666;28;20135;-81
2022/01/20 05:10:18;;;;;;;39.65;20.38;;;-0.30;99.90;;;;;;5035804;28;20426;-81
2022/01/20 05:15:12;;;;;;;176.10;62.72;;;-0.20;99.90;;;;;;5053692;28;20099;-81
2022/01/20 05:17:38;;;;;;;406.83;138.43;;;-0.20;99.90;;;;;;5035837;28;20037;-81
2022/01/20 05:20:04;;;;;;;371.55;112.20;;;-0.20;99.90;;;;;;5053527;28;20136;-81
2022/01/20 05:22:29;;;;;;;141.82;41.85;;;-0.20;99.90;;;;;;5035687;28;20032;-81
2022/01/20 05:24:55;;;;;;;130.40;42.45;;;-0.20;99.90;;;;;;5053654;28;20040;-81
2022/01/20 05:27:20;;;;;;;124.57;39.50;;;-0.20;99.90;;;;;;5035887;28;20043;-81
2022/01/20 05:29:46;;;;;;;146.10;42.05;;;-0.20;99.90;;;;;;5053316;28;20425;-80
2022/01/20 05:32:12;;;;;;;158.77;51.63;;;-0.20;99.90;;;;;;5053434;28;20033;-80
2022/01/20 05:34:37;;;;;;;284.25;81.00;;;-0.20;99.90;;;;;;5035607;28;20075;-80
2022/01/20 05:37:03;;;;;;;114.93;33.55;;;-0.10;99.90;;;;;;5035433;28;20056;-80
2022/01/20 05:39:30;;;;;;;117.93;37.40;;;-0.20;99.90;;;;;;5053392;28;20502;-80
2022/01/20 05:41:56;;;;;;;95.72;30.27;;;-0.20;99.90;;;;;;5035054;28;20040;-81
2022/01/20 05:44:22;;;;;;;55.00;20.48;;;-0.20;99.90;;;;;;5053271;28;20044;-81
2022/01/20 05:46:49;;;;;;;139.05;46.83;;;-0.20;99.90;;;;;;5056442;28;20190;-81
2022/01/20 05:49:21;;;;;;;122.05;39.55;;;-0.20;99.90;;;;;;5062246;28;20047;-80
2022/01/20 05:51:49;;;;;;;129.52;38.65;;;-0.20;99.90;;;;;;5054818;28;20029;-82
2022/01/20 05:54:15;;;;;;;99.70;33.05;;;-0.20;99.90;;;;;;5037865;28;20119;-81
2022/01/20 05:56:41;;;;;;;99.38;33.50;;;-0.20;99.90;;;;;;5049969;28;20573;-82
2022/01/20 05:59:06;;;;;;;196.75;64.28;;;-0.20;99.90;;;;;;5049590;28;20444;-81
2022/01/20 06:01:36;;;;;;;101.53;35.72;;;-0.20;99.90;;;;;;5069099;28;20555;-80
2022/01/20 06:04:01;;;;;;;114.28;37.30;;;-0.20;99.90;;;;;;5049659;28;20528;-81
2022/01/20 06:06:27;;;;;;;64.97;25.77;;;-0.20;99.90;;;;;;5068581;28;20037;-81
2022/01/20 06:08:53;;;;;;;72.47;27.45;;;-0.20;99.90;;;;;;5069210;28;20071;-82
2022/01/20 06:11:19;;;;;;;107.53;37.92;;;-0.20;99.90;;;;;;5066889;28;20044;-81
2022/01/20 06:13:45;;;;;;;75.68;27.25;;;-0.10;99.90;;;;;;5048063;28;20029;-82
2022/01/20 06:16:10;;;;;;;150.82;57.22;;;-0.10;99.90;;;;;;5067142;28;20025;-82
2022/01/20 06:18:36;;;;;;;115.65;37.83;;;-0.10;99.90;;;;;;5067261;28;20037;-82
2022/01/20 06:21:02;;;;;;;81.05;31.08;;;-0.10;99.90;;;;;;5048522;28;20036;-81
2022/01/20 06:23:28;;;;;;;89.80;33.85;;;-0.10;99.90;;;;;;5067078;28;20036;-81
2022/01/20 06:25:54;;;;;;;84.32;30.38;;;-0.10;99.90;;;;;;5067693;28;20036;-81
2022/01/20 06:28:20;;;;;;;75.25;27.60;;;0.00;99.90;;;;;;5069045;28;20513;-81
2022/01/20 06:30:46;;;;;;;92.35;35.78;;;0.00;99.90;;;;;;5050504;28;20458;-81
2022/01/20 06:33:12;;;;;;;57.53;23.42;;;0.00;99.90;;;;;;5050572;28;20044;-81
2022/01/20 06:35:38;;;;;;;81.45;29.08;;;0.00;99.90;;;;;;5050093;28;20386;-81
2022/01/20 06:38:04;;;;;;;61.55;25.52;;;0.00;99.90;;;;;;5068875;28;20071;-81
2022/01/20 06:40:31;;;;;;;62.72;25.63;;;0.10;99.90;;;;;;5050793;28;20036;-80
2022/01/20 06:42:57;;;;;;;38.53;19.50;;;0.10;99.90;;;;;;5049680;28;20044;-80
2022/01/20 06:45:23;;;;;;;39.33;20.17;;;0.10;99.90;;;;;;5067821;28;20066;-82
2022/01/20 06:47:49;;;;;;;45.42;21.00;;;0.10;99.90;;;;;;5048612;28;20219;-80
2022/01/20 06:50:15;;;;;;;58.75;24.80;;;0.10;99.90;;;;;;5047905;28;20032;-80
2022/01/20 06:52:41;;;;;;;82.90;34.38;;;0.20;99.90;;;;;;5046777;28;20477;-80
2022/01/20 06:55:10;;;;;;;121.57;46.17;;;0.20;99.90;;;;;;5043997;28;20033;-81
2022/01/20 06:57:37;;;;;;;53.20;23.08;;;0.20;99.90;;;;;;5041319;28;20349;-80
2022/01/20 07:00:08;;;;;;;52.35;22.45;;;0.20;99.90;;;;;;5039341;28;20029;-79
2022/01/20 07:02:34;;;;;;;40.38;21.02;;;0.20;99.90;;;;;;5063317;28;20691;-80
2022/01/20 07:04:59;;;;;;;55.38;21.77;;;0.30;99.90;;;;;;5048918;28;20025;-81
2022/01/20 07:07:25;;;;;;;49.83;21.58;;;0.20;99.90;;;;;;5068451;28;20040;-82
2022/01/20 07:09:50;;;;;;;36.55;17.23;;;0.20;99.90;;;;;;5068626;28;20036;-81
2022/01/20 07:12:16;;;;;;;34.80;18.42;;;0.20;99.90;;;;;;5030481;28;20033;-82
2022/01/20 07:14:43;;;;;;;48.70;21.98;;;0.20;99.90;;;;;;5045612;28;20478;-80
2022/01/20 07:17:08;;;;;;;47.72;22.85;;;0.10;99.90;;;;;;5047174;28;20048;-80
2022/01/20 07:19:34;;;;;;;42.58;21.48;;;0.10;99.90;;;;;;5069714;28;20033;-80
2022/01/20 07:22:01;;;;;;;35.55;18.38;;;0.10;99.90;;;;;;5047210;28;20187;-80
2022/01/20 07:24:30;;;;;;;37.42;19.42;;;0.00;99.90;;;;;;5073107;28;20032;-78
2022/01/20 07:26:59;;;;;;;36.92;16.40;;;0.00;99.90;;;;;;5071668;28;20043;-78
2022/01/20 07:29:26;;;;;;;22.50;12.48;;;0.00;99.90;;;;;;5055095;28;20409;-78
2022/01/20 07:31:53;;;;;;;18.50;10.75;;;0.00;99.90;;;;;;5070144;28;20040;-78
2022/01/20 07:34:18;;;;;;;16.90;8.52;;;-0.10;99.90;;;;;;5071136;28;20037;-78
2022/01/20 07:36:44;;;;;;;14.40;7.20;;;-0.10;99.90;;;;;;5051321;28;20059;-78
2022/01/20 07:39:10;;;;;;;16.55;7.95;;;-0.10;99.90;;;;;;5065004;28;20036;-78
2022/01/20 07:41:35;;;;;;;14.48;7.32;;;0.00;99.90;;;;;;5066799;28;20044;-78
2022/01/20 07:44:01;;;;;;;13.15;6.93;;;0.00;99.90;;;;;;5047706;28;20029;-78
2022/01/20 07:46:29;;;;;;;14.50;6.85;;;0.00;99.90;;;;;;5047481;28;20119;-77
2022/01/20 07:48:55;;;;;;;12.60;6.07;;;0.00;99.90;;;;;;5064190;28;20512;-78
2022/01/20 07:51:21;;;;;;;10.00;5.28;;;0.00;99.90;;;;;;5065415;28;20051;-78
2022/01/20 07:53:46;;;;;;;8.80;5.53;;;0.00;99.90;;;;;;5047172;28;20036;-78
2022/01/20 07:56:12;;;;;;;13.30;6.50;;;0.00;99.90;;;;;;5066458;28;20032;-78
2022/01/20 07:58:38;;;;;;;9.07;4.40;;;0.00;99.90;;;;;;5068014;28;20127;-78
2022/01/20 08:01:05;;;;;;;13.82;5.82;;;-0.10;99.90;;;;;;5050332;28;20032;-78
2022/01/20 08:03:31;;;;;;;7.63;4.72;;;0.00;99.90;;;;;;5050097;28;20082;-78
2022/01/20 08:05:57;;;;;;;15.88;8.27;;;0.00;99.90;;;;;;5068691;28;20045;-78
2022/01/20 08:08:22;;;;;;;10.73;5.35;;;0.00;99.90;;;;;;5048141;28;20406;-78
2022/01/20 08:10:48;;;;;;;17.17;6.80;;;-0.10;99.90;;;;;;5066014;28;20028;-78
2022/01/20 08:13:15;;;;;;;20.95;6.35;;;0.00;99.90;;;;;;5067455;28;20443;-77
2022/01/20 08:15:41;;;;;;;11.63;6.35;;;0.00;99.90;;;;;;5067733;28;20043;-77
2022/01/20 08:18:07;;;;;;;87.47;38.97;;;0.00;99.90;;;;;;5050026;28;20028;-77
2022/01/20 08:20:33;;;;;;;48.38;24.05;;;0.00;99.90;;;;;;5068255;28;20047;-77
2022/01/20 08:23:00;;;;;;;117.13;50.58;;;0.00;99.90;;;;;;5050519;28;20456;-77
2022/01/20 08:25:26;;;;;;;69.85;30.35;;;0.00;99.90;;;;;;5067897;28;20086;-77
2022/01/20 08:27:52;;;;;;;90.10;41.45;;;0.00;99.90;;;;;;5066759;28;20035;-77
2022/01/20 08:30:22;;;;;;;61.67;32.30;;;0.10;99.90;;;;;;5066642;28;20031;-77
2022/01/20 08:32:48;;;;;;;37.13;20.42;;;0.10;99.90;;;;;;5066341;28;20040;-77
2022/01/20 08:35:15;;;;;;;78.00;37.55;;;0.10;99.90;;;;;;5053290;28;20041;-77
2022/01/20 08:37:45;;;;;;;37.25;18.08;;;0.20;99.90;;;;;;5071359;28;20120;-77
2022/01/20 08:40:13;;;;;;;46.60;17.27;;;0.30;99.90;;;;;;5066589;28;20036;-77
2022/01/20 08:42:43;;;;;;;30.58;15.10;;;0.40;99.90;;;;;;5068424;28;20101;-77
2022/01/20 08:45:10;;;;;;;27.63;15.30;;;0.40;99.90;;;;;;5047535;28;20573;-77
2022/01/20 08:47:36;;;;;;;19.30;12.20;;;0.50;99.90;;;;;;5069656;28;20035;-77
2022/01/20 08:50:05;;;;;;;25.70;15.88;;;0.50;99.90;;;;;;5070347;28;20040;-77
2022/01/20 08:52:31;;;;;;;27.80;13.73;;;0.50;99.90;;;;;;5045242;28;20025;-77
2022/01/20 08:54:58;;;;;;;31.73;18.58;;;0.50;99.90;;;;;;5068228;28;20039;-77
2022/01/20 08:57:26;;;;;;;19.30;10.10;;;0.60;99.90;;;;;;5069409;28;20131;-78
2022/01/20 08:59:52;;;;;;;25.63;12.65;;;0.70;99.90;;;;;;5052527;28;20035;-77
2022/01/20 09:02:18;;;;;;;22.60;14.27;;;0.70;99.90;;;;;;5067082;28;20041;-77
2022/01/20 09:04:44;;;;;;;48.72;23.40;;;0.70;99.90;;;;;;5069775;28;20037;-77
2022/01/20 09:07:09;;;;;;;65.35;26.88;;;0.80;99.90;;;;;;5069200;28;20406;-78
2022/01/20 09:09:41;;;;;;;125.82;44.65;;;0.70;99.90;;;;;;5064340;28;20033;-77
2022/01/20 09:17:22;;;;;;;16.90;8.48;;;1.00;99.90;;;;;;5070003;28;20044;-77
2022/01/20 09:19:48;;;;;;;13.98;7.57;;;0.90;99.90;;;;;;5069390;28;20040;-78
2022/01/20 09:22:14;;;;;;;23.98;10.13;;;1.00;99.90;;;;;;5069072;28;20075;-78
2022/01/20 09:24:40;;;;;;;17.25;6.97;;;1.00;99.90;;;;;;5048182;28;20090;-77
2022/01/20 09:27:05;;;;;;;13.82;7.60;;;1.00;99.90;;;;;;5067210;28;20029;-77
2022/01/20 09:29:32;;;;;;;13.50;8.15;;;1.00;99.90;;;;;;5065983;28;20039;-77
2022/01/20 09:31:58;;;;;;;21.45;9.40;;;1.10;99.90;;;;;;5067295;28;20504;-77
2022/01/20 09:34:24;;;;;;;22.10;11.15;;;1.20;99.90;;;;;;5048153;28;20592;-78
2022/01/20 09:36:51;;;;;;;23.20;12.43;;;1.20;99.90;;;;;;5045029;28;20727;-77
2022/01/20 09:39:16;;;;;;;28.35;15.00;;;1.30;99.90;;;;;;5067077;28;20033;-77
2022/01/20 09:41:44;;;;;;;30.20;16.63;;;1.20;99.90;;;;;;5066987;28;20111;-77
2022/01/20 09:44:10;;;;;;;41.08;25.33;;;1.10;99.90;;;;;;5067163;28;20043;-77
2022/01/20 09:46:37;;;;;;;40.20;20.00;;;1.10;99.90;;;;;;5066823;28;20037;-77
2022/01/20 09:49:02;;;;;;;36.60;20.30;;;1.10;99.90;;;;;;5043297;28;20119;-77
2022/01/20 09:51:28;;;;;;;37.97;21.63;;;1.30;99.90;;;;;;5047491;28;20204;-77
2022/01/20 09:53:54;;;;;;;37.33;19.67;;;1.30;99.90;;;;;;5049386;28;20082;-77
2022/01/20 09:56:20;;;;;;;35.33;19.20;;;1.30;99.90;;;;;;5066738;28;20433;-77
2022/01/20 09:58:46;;;;;;;40.28;19.70;;;1.30;99.90;;;;;;5066736;28;20075;-77
2022/01/20 10:01:12;;;;;;;41.67;18.95;;;1.40;99.90;;;;;;5065019;28;20461;-77
2022/01/20 10:03:38;;;;;;;36.33;18.08;;;1.40;99.90;;;;;;5048661;28;20086;-77
2022/01/20 10:06:05;;;;;;;27.67;15.15;;;1.30;99.90;;;;;;5066780;28;20036;-77
2022/01/20 10:08:35;;;;;;;48.92;19.38;;;1.30;99.90;;;;;;5048806;28;20044;-77
2022/01/20 10:11:09;;;;;;;29.88;18.13;;;1.30;99.90;;;;;;5047237;28;20516;-78
2022/01/20 10:13:37;;;;;;;25.08;13.40;;;1.20;99.90;;;;;;5066419;28;20040;-77
2022/01/20 10:16:09;;;;;;;28.25;16.90;;;1.20;99.90;;;;;;5062420;28;20439;-77
2022/01/20 10:19:14;;;;;;;28.25;14.73;;;1.20;99.90;;;;;;5067419;28;20039;-78
2022/01/20 10:21:40;;;;;;;31.98;13.85;;;1.20;99.90;;;;;;5023619;28;20048;-77
2022/01/20 10:24:08;;;;;;;31.60;15.45;;;1.20;99.90;;;;;;5071839;28;20036;-77
2022/01/20 10:26:33;;;;;;;50.13;21.58;;;1.20;99.90;;;;;;5065022;28;20033;-77
2022/01/20 10:29:03;;;;;;;94.80;44.58;;;1.20;99.90;;;;;;5060934;28;20082;-77
2022/01/20 10:31:44;;;;;;;32.28;16.10;;;1.20;99.90;;;;;;5062389;28;20041;-77
2022/01/20 10:34:33;;;;;;;44.65;20.77;;;1.10;99.90;;;;;;5052602;28;20102;-77
2022/01/20 10:37:17;;;;;;;49.75;20.08;;;1.10;99.90;;;;;;5067979;28;20037;-77
2022/01/20 10:39:45;;;;;;;43.03;17.63;;;1.10;99.90;;;;;;5059303;28;20086;-77
2022/01/20 10:42:23;;;;;;;34.88;15.23;;;0.90;99.90;;;;;;5069780;28;20490;-77
2022/01/20 10:44:53;;;;;;;21.63;13.75;;;0.80;99.90;;;;;;5069925;28;20036;-77
2022/01/20 10:47:30;;;;;;;33.17;14.27;;;0.70;99.90;;;;;;5067731;28;20094;-77
2022/01/20 10:50:16;;;;;;;19.98;10.25;;;0.40;99.90;;;;;;5067377;28;20045;-77
2022/01/20 10:52:44;;;;;;;25.40;12.75;;;0.20;99.90;;;;;;5045373;28;20048;-77
2022/01/20 10:55:25;;;;;;;35.63;18.95;;;0.10;99.90;;;;;;5070494;28;20024;-77
2022/01/20 10:57:55;;;;;;;25.30;10.85;;;-0.10;99.90;;;;;;5054228;28;20489;-77
2022/01/20 11:00:23;;;;;;;21.17;6.78;;;-0.20;99.90;;;;;;5049993;28;20474;-78
2022/01/20 11:02:51;;;;;;;8.55;3.45;;;-0.70;99.90;;;;;;5053468;28;20158;-77
2022/01/20 11:05:17;;;;;;;6.15;3.20;;;-1.00;99.90;;;;;;5067296;28;20021;-77
2022/01/20 11:07:44;;;;;;;3.65;2.05;;;-1.20;99.90;;;;;;5050315;28;20090;-77
2022/01/20 11:10:10;;;;;;;17.70;7.78;;;-1.30;99.90;;;;;;5051649;28;20116;-77
2022/01/20 11:12:37;;;;;;;5.43;4.13;;;-1.30;99.90;;;;;;5051187;28;20432;-77
2022/01/20 11:15:07;;;;;;;11.55;3.80;;;-1.40;99.90;;;;;;5069562;28;20040;-77
2022/01/20 11:17:35;;;;;;;18.13;5.60;;;-1.30;99.90;;;;;;5070564;28;20115;-77
2022/01/20 11:20:17;;;;;;;27.90;12.32;;;-1.30;99.90;;;;;;5070207;28;20028;-77
2022/01/20 11:22:57;;;;;;;15.13;8.23;;;-1.20;99.90;;;;;;5051784;28;20493;-77
2022/01/20 11:25:26;;;;;;;8.23;6.63;;;-1.10;99.90;;;;;;5051866;28;20294;-77
2022/01/20 11:28:08;;;;;;;29.30;15.13;;;-1.10;99.90;;;;;;5051838;28;20024;-77
2022/01/20 11:30:35;;;;;;;65.03;28.75;;;-1.10;99.90;;;;;;5052042;28;20032;-77
2022/01/20 11:33:06;;;;;;;10.82;6.38;;;-1.10;99.90;;;;;;5052218;28;20036;-77
2022/01/20 11:35:43;;;;;;;5.45;3.75;;;-1.30;99.90;;;;;;5052647;28;20048;-77
2022/01/20 11:38:11;;;;;;;7.97;3.15;;;-1.20;99.90;;;;;;5073692;28;20033;-77
2022/01/20 11:41:00;;;;;;;7.93;2.42;;;-1.20;99.90;;;;;;5068225;28;20079;-77
2022/01/20 11:43:50;;;;;;;3.90;2.53;;;-1.30;99.90;;;;;;5071955;28;20048;-77
2022/01/20 11:46:19;;;;;;;2.88;2.40;;;-1.30;99.90;;;;;;5063279;28;20830;-77
2022/01/20 11:49:11;;;;;;;38.90;24.10;;;-1.20;99.90;;;;;;5070907;28;20040;-77
2022/01/20 11:51:46;;;;;;;59.08;29.88;;;-1.10;99.90;;;;;;5049741;28;20028;-77
2022/01/20 11:54:12;;;;;;;67.38;41.95;;;-1.10;99.90;;;;;;5072369;28;20103;-77
2022/01/20 11:56:43;;;;;;;11.55;6.35;;;-1.10;99.90;;;;;;5053344;28;20123;-77
2022/01/20 11:59:12;;;;;;;4.32;2.80;;;-1.00;99.90;;;;;;5069659;28;20031;-77
2022/01/20 12:01:53;;;;;;;5.35;2.70;;;-1.00;99.90;;;;;;5054550;28;20031;-77
2022/01/20 12:04:34;;;;;;;5.85;3.22;;;-1.00;99.90;;;;;;5069945;28;20068;-77
2022/01/20 12:07:00;;;;;;;7.85;4.82;;;-0.90;99.90;;;;;;5044818;28;20032;-77
2022/01/20 12:09:37;;;;;;;8.35;3.72;;;-1.00;99.90;;;;;;5071791;28;20037;-77
2022/01/20 12:12:05;;;;;;;7.57;5.03;;;-1.10;99.90;;;;;;5068659;28;20036;-77
2022/01/20 12:14:36;;;;;;;158.82;60.53;;;-1.30;99.90;;;;;;5064135;28;20043;-77
2022/01/20 12:17:17;;;;;;;150.02;54.78;;;-1.60;99.90;;;;;;5066224;28;20124;-77
2022/01/20 12:19:56;;;;;;;157.90;60.45;;;-1.80;99.90;;;;;;5069298;28;20039;-77
2022/01/20 12:22:22;;;;;;;212.27;78.60;;;-2.00;99.90;;;;;;5068308;28;20048;-77
2022/01/20 12:24:55;;;;;;;115.05;41.70;;;-2.00;99.90;;;;;;5048645;28;20035;-78
2022/01/20 12:27:23;;;;;;;92.05;32.95;;;-1.90;99.90;;;;;;5067427;28;20097;-76
2022/01/20 12:29:50;;;;;;;85.53;26.50;;;-1.80;99.90;;;;;;5046674;28;20211;-77
2022/01/20 12:32:18;;;;;;;65.88;21.65;;;-1.80;99.90;;;;;;5053547;28;20123;-77
2022/01/20 12:34:43;;;;;;;96.55;34.75;;;-1.70;99.90;;;;;;5071072;28;20059;-77
2022/01/20 12:37:09;;;;;;;63.25;18.08;;;-1.60;99.90;;;;;;5053651;28;20493;-77
2022/01/20 12:39:39;;;;;;;151.55;41.72;;;-1.50;99.90;;;;;;5071705;28;20037;-78
2022/01/20 12:42:14;;;;;;;252.88;82.28;;;-1.60;99.90;;;;;;5073311;28;20051;-77
2022/01/20 12:44:49;;;;;;;128.30;45.25;;;-1.50;99.90;;;;;;5073636;28;20028;-77
2022/01/20 12:47:16;;;;;;;111.00;34.97;;;-1.60;96.50;;;;;;5056098;28;20404;-77
2022/01/20 12:49:43;;;;;;;9.05;3.63;;;-1.60;90.50;;;;;;5055842;28;20025;-77
2022/01/20 12:52:10;;;;;;;38.45;11.02;;;-1.50;90.20;;;;;;5073672;28;20036;-77
2022/01/20 12:54:36;;;;;;;37.97;16.65;;;-1.40;91.50;;;;;;5073863;28;20033;-77
2022/01/20 12:57:07;;;;;;;79.05;25.73;;;-1.30;89.20;;;;;;5073768;28;20032;-76
2022/01/20 12:59:44;;;;;;;8.75;4.70;;;-1.40;88.30;;;;;;5073721;28;20032;-77
2022/01/20 13:02:13;;;;;;;9.40;4.53;;;-1.50;81.10;;;;;;5072285;28;20032;-77
2022/01/20 13:04:40;;;;;;;13.27;6.05;;;-1.50;81.10;;;;;;5073593;28;20107;-77
2022/01/20 13:07:10;;;;;;;36.05;15.20;;;-1.40;82.80;;;;;;5073524;28;20033;-77
2022/01/20 13:09:40;;;;;;;46.03;15.68;;;-1.40;82.60;;;;;;5055803;28;20066;-77
2022/01/20 13:12:07;;;;;;;10.68;4.93;;;-1.40;81.80;;;;;;5073189;28;20664;-77
2022/01/20 13:14:34;;;;;;;22.08;7.15;;;-1.50;79.60;;;;;;5073478;28;20520;-77
2022/01/20 13:17:00;;;;;;;67.50;22.35;;;-1.60;80.50;;;;;;5073350;28;20482;-77
2022/01/20 13:19:46;;;;;;;44.53;16.65;;;-1.60;81.50;;;;;;5073035;28;20034;-77
2022/01/20 13:22:53;;;;;;;13.85;6.80;;;-1.60;84.10;;;;;;5072727;28;20040;-77
2022/01/20 13:25:22;;;;;;;53.50;17.08;;;-1.60;82.40;;;;;;5073349;28;20028;-77
2022/01/20 13:28:02;;;;;;;6.68;2.88;;;-1.60;81.80;;;;;;5072880;28;20454;-77
2022/01/20 13:30:36;;;;;;;7.70;4.07;;;-1.50;80.70;;;;;;5055175;28;20029;-77
2022/01/20 13:33:17;;;;;;;15.48;7.90;;;-1.50;81.20;;;;;;5040502;28;20115;-77
2022/01/20 13:35:48;;;;;;;13.90;4.57;;;-1.50;81.00;;;;;;5053142;28;20033;-77
2022/01/20 13:38:15;;;;;;;25.27;11.70;;;-1.60;78.90;;;;;;5035190;28;20061;-77
2022/01/20 13:40:47;;;;;;;7.57;3.88;;;-1.60;79.00;;;;;;5052602;28;20037;-76
2022/01/20 13:46:03;;;;;;;12.30;4.63;;;-1.70;80.20;;;;;;5053110;28;20060;-76
2022/01/20 13:48:34;;;;;;;24.88;10.30;;;-1.60;79.10;;;;;;5034818;28;20060;-77
2022/01/20 13:51:01;;;;;;;12.63;5.88;;;-1.50;79.70;;;;;;5034593;28;20040;-77
2022/01/20 13:53:29;;;;;;;13.45;6.50;;;-1.40;81.50;;;;;;5035122;28;20032;-77
2022/01/20 13:56:01;;;;;;;15.25;7.85;;;-1.30;79.90;;;;;;5052602;28;20057;-77